createdAt,value
2018-06-22T00:00:07.665Z,46.50
2018-06-22T00:02:38.332Z,46.60
2018-06-22T00:05:07.181Z,46.80
2018-06-22T00:07:36.045Z,47.20
2018-06-22T00:10:05.917Z,47.30
2018-06-22T00:12:37.334Z,47.40
2018-06-22T00:15:06.267Z,47.60
2018-06-22T00:17:35.703Z,47.90
2018-06-22T00:20:04.562Z,48.10
2018-06-22T00:22:37.862Z,48.40
2018-06-22T00:25:07.042Z,48.70
2018-06-22T00:27:36.258Z,49.10
2018-06-22T00:30:05.237Z,49.40
2018-06-22T00:32:34.320Z,49.80
2018-06-22T00:35:03.269Z,50.10
2018-06-22T00:40:00.590Z,50.60
2018-06-22T00:42:29.729Z,50.90
2018-06-22T00:44:58.640Z,51.00
2018-06-22T00:47:27.735Z,51.20
2018-06-22T00:49:56.585Z,51.40
2018-06-22T00:52:25.532Z,51.80
2018-06-22T00:54:54.408Z,52.00
2018-06-22T00:57:23.244Z,52.60
2018-06-22T00:59:52.102Z,53.20
2018-06-22T01:02:20.921Z,52.40
2018-06-22T01:04:49.818Z,52.80
2018-06-22T01:07:18.844Z,53.10
2018-06-22T01:09:47.743Z,53.60
2018-06-22T01:12:16.627Z,54.00
2018-06-22T01:14:45.512Z,54.30
2018-06-22T01:17:14.430Z,54.60
2018-06-22T01:19:43.340Z,54.90
2018-06-22T01:22:12.310Z,55.20
2018-06-22T01:24:41.137Z,55.50
2018-06-22T01:27:10.532Z,56.10
2018-06-22T01:29:39.401Z,56.40
2018-06-22T01:32:08.375Z,56.60
2018-06-22T01:34:37.282Z,56.90
2018-06-22T01:37:06.096Z,57.20
2018-06-22T01:39:35.038Z,57.40
2018-06-22T01:42:03.904Z,57.60
2018-06-22T01:44:32.796Z,57.90
2018-06-22T01:47:01.696Z,58.40
2018-06-22T01:49:30.682Z,58.80
2018-06-22T01:51:59.573Z,59.40
2018-06-22T01:54:28.575Z,59.70
2018-06-22T01:56:57.551Z,60.50
2018-06-22T01:59:26.405Z,61.40
2018-06-22T02:01:55.423Z,61.80
2018-06-22T02:04:24.332Z,62.30
2018-06-22T02:06:53.425Z,62.70
2018-06-22T02:09:22.236Z,63.50
2018-06-22T02:11:51.126Z,63.80
2018-06-22T02:14:19.998Z,64.20
2018-06-22T02:16:49.344Z,64.60
2018-06-22T02:21:46.726Z,65.20
2018-06-22T02:24:16.556Z,65.80
2018-06-22T02:26:45.442Z,66.00
2018-06-22T02:29:14.243Z,66.50
2018-06-22T02:31:43.085Z,66.50
2018-06-22T02:34:11.967Z,66.80
2018-06-22T02:36:40.826Z,67.20
2018-06-22T02:39:11.265Z,67.80
2018-06-22T02:41:40.108Z,67.10
2018-06-22T02:44:08.955Z,67.20
2018-06-22T02:46:37.883Z,67.20
2018-06-22T02:49:07.330Z,67.30
2018-06-22T02:51:36.125Z,67.60
2018-06-22T02:54:07.509Z,67.70
2018-06-22T02:56:36.441Z,67.90
2018-06-22T02:59:05.433Z,67.90
2018-06-22T03:01:34.661Z,68.20
2018-06-22T03:04:06.217Z,68.30
2018-06-22T03:11:33.729Z,69.00
2018-06-22T03:14:02.556Z,69.30
2018-06-22T03:16:32.088Z,69.90
2018-06-22T03:19:00.920Z,70.00
2018-06-22T03:21:29.750Z,70.50
2018-06-22T03:23:58.584Z,71.00
2018-06-22T03:28:55.813Z,72.20
2018-06-22T03:31:24.655Z,72.70
2018-06-22T03:33:53.525Z,73.00
2018-06-22T03:36:22.378Z,73.80
2018-06-22T03:38:51.244Z,74.50
2018-06-22T03:41:20.238Z,75.10
2018-06-22T03:43:49.052Z,75.90
2018-06-22T03:46:17.896Z,76.70
2018-06-22T03:48:46.713Z,78.50
2018-06-22T03:51:15.653Z,79.40
2018-06-22T03:53:44.477Z,80.20
2018-06-22T03:56:13.316Z,81.10
2018-06-22T03:58:42.212Z,82.10
2018-06-22T04:01:12.102Z,82.90
2018-06-22T04:03:40.945Z,83.40
2018-06-22T04:06:09.857Z,83.90
2018-06-22T04:08:38.710Z,84.40
2018-06-22T04:11:07.555Z,84.60
2018-06-22T04:18:33.396Z,85.80
2018-06-22T04:21:02.257Z,86.30
2018-06-22T04:23:31.116Z,86.90
2018-06-22T04:25:59.937Z,87.00
2018-06-22T04:28:28.747Z,87.40
2018-06-22T04:30:57.673Z,87.50
2018-06-22T04:33:26.506Z,88.10
2018-06-22T04:35:55.471Z,88.40
2018-06-22T04:38:24.289Z,88.40
2018-06-22T04:40:53.545Z,88.80
2018-06-22T04:43:22.500Z,89.10
2018-06-22T04:45:51.383Z,89.20
2018-06-22T04:48:20.237Z,88.30
2018-06-22T04:50:49.113Z,88.70
2018-06-22T04:53:18.021Z,89.20
2018-06-22T04:55:46.938Z,89.20
2018-06-22T04:58:15.788Z,88.70
2018-06-22T05:00:44.633Z,88.80
2018-06-22T05:03:13.473Z,89.00
2018-06-22T05:05:42.301Z,88.70
2018-06-22T05:08:11.195Z,88.70
2018-06-22T05:10:40.110Z,88.60
2018-06-22T05:13:08.901Z,88.60
2018-06-22T05:15:37.828Z,88.40
2018-06-22T05:18:06.671Z,88.40
2018-06-22T05:20:35.495Z,87.90
2018-06-22T05:23:04.353Z,88.30
2018-06-22T05:25:33.166Z,88.30
2018-06-22T05:28:01.961Z,88.10
2018-06-22T05:30:30.789Z,88.00
2018-06-22T05:32:59.568Z,87.60
2018-06-22T05:35:28.450Z,87.40
2018-06-22T05:37:57.281Z,87.10
2018-06-22T05:40:26.107Z,86.50
2018-06-22T05:42:55.126Z,86.20
2018-06-22T05:45:24.185Z,86.30
2018-06-22T05:47:53.228Z,86.00
2018-06-22T05:50:22.398Z,85.30
2018-06-22T05:52:52.015Z,84.70
2018-06-22T05:55:21.049Z,84.60
2018-06-22T05:57:49.955Z,84.30
2018-06-22T06:00:18.830Z,83.90
2018-06-22T06:02:47.867Z,83.80
2018-06-22T06:05:17.034Z,83.30
2018-06-22T06:07:45.952Z,81.90
2018-06-22T06:10:14.905Z,82.20
2018-06-22T06:12:43.934Z,81.60
2018-06-22T06:15:12.798Z,80.80
2018-06-22T06:17:41.621Z,80.90
2018-06-22T06:20:11.151Z,80.40
2018-06-22T06:22:40.177Z,80.10
2018-06-22T06:25:09.061Z,79.30
2018-06-22T06:27:38.293Z,79.30
2018-06-22T06:30:07.490Z,78.10
2018-06-22T06:32:38.532Z,78.50
2018-06-22T06:35:07.501Z,77.50
2018-06-22T06:37:36.358Z,76.80
2018-06-22T06:40:05.221Z,77.50
2018-06-22T06:42:34.153Z,76.70
2018-06-22T06:45:03.110Z,76.70
2018-06-22T06:47:32.056Z,76.40
2018-06-22T06:50:01.400Z,76.20
2018-06-22T06:52:30.269Z,76.10
2018-06-22T06:54:59.105Z,76.10
2018-06-22T06:57:28.358Z,75.70
2018-06-22T06:59:57.176Z,74.40
2018-06-22T07:02:26.688Z,73.90
2018-06-22T07:04:56.271Z,73.90
2018-06-22T07:07:25.210Z,74.60
2018-06-22T07:09:54.293Z,73.30
2018-06-22T07:12:23.365Z,74.10
2018-06-22T07:14:52.387Z,73.80
2018-06-22T07:17:21.352Z,73.50
2018-06-22T07:19:51.152Z,72.80
2018-06-22T07:22:20.062Z,72.50
2018-06-22T07:24:48.915Z,73.00
2018-06-22T07:27:17.750Z,71.30
2018-06-22T07:29:46.581Z,72.30
2018-06-22T07:32:16.022Z,70.80
2018-06-22T07:34:44.865Z,70.80
2018-06-22T07:37:13.763Z,70.50
2018-06-22T07:39:42.561Z,69.40
2018-06-22T07:42:11.441Z,69.40
2018-06-22T07:44:40.233Z,69.10
2018-06-22T07:47:09.629Z,68.80
2018-06-22T07:49:38.549Z,68.80
2018-06-22T07:52:07.396Z,69.10
2018-06-22T07:54:36.414Z,70.30
2018-06-22T07:57:05.277Z,69.70
2018-06-22T07:59:34.104Z,68.70
2018-06-22T08:02:03.017Z,68.70
2018-06-22T08:04:31.901Z,68.70
2018-06-22T08:07:00.756Z,68.80
2018-06-22T08:09:29.544Z,67.00
2018-06-22T08:11:58.393Z,66.10
2018-06-22T08:14:27.233Z,65.70
2018-06-22T08:16:56.185Z,65.50
2018-06-22T08:19:25.022Z,65.40
2018-06-22T08:24:22.222Z,65.10
2018-06-22T08:26:51.060Z,65.10
2018-06-22T08:29:20.620Z,64.20
2018-06-22T08:31:49.440Z,64.00
2018-06-22T08:34:18.293Z,64.00
2018-06-22T08:36:47.733Z,63.60
2018-06-22T08:39:16.593Z,63.60
2018-06-22T08:41:45.523Z,63.40
2018-06-22T08:44:14.329Z,62.90
2018-06-22T08:46:43.164Z,63.90
2018-06-22T08:49:12.009Z,62.60
2018-06-22T08:51:40.888Z,62.40
2018-06-22T08:54:09.970Z,63.00
2018-06-22T08:56:38.834Z,62.60
2018-06-22T08:59:07.731Z,62.20
2018-06-22T09:04:05.594Z,61.70
2018-06-22T09:06:34.557Z,60.70
2018-06-22T09:09:03.713Z,60.30
2018-06-22T09:14:01.201Z,60.00
2018-06-22T09:16:30.285Z,60.30
2018-06-22T09:18:59.159Z,61.70
2018-06-22T09:21:28.118Z,59.20
2018-06-22T09:23:57.391Z,59.50
2018-06-22T09:26:26.260Z,58.40
2018-06-22T09:28:55.070Z,58.50
2018-06-22T09:31:23.985Z,57.20
2018-06-22T09:33:52.786Z,56.60
2018-06-22T09:36:22.176Z,56.40
2018-06-22T09:38:51.056Z,55.10
2018-06-22T09:41:19.894Z,53.80
2018-06-22T09:43:48.803Z,54.30
2018-06-22T09:46:17.674Z,55.40
2018-06-22T09:48:46.884Z,52.60
2018-06-22T09:51:15.690Z,52.20
2018-06-22T09:53:44.743Z,52.60
2018-06-22T09:56:13.573Z,50.60
2018-06-22T09:58:42.460Z,48.80
2018-06-22T10:01:11.364Z,49.00
2018-06-22T10:03:40.220Z,49.50
2018-06-22T10:06:09.988Z,49.90
2018-06-22T10:08:38.850Z,48.10
2018-06-22T10:11:07.819Z,47.70
2018-06-22T10:13:36.636Z,48.40
2018-06-22T10:16:05.500Z,48.40
2018-06-22T10:18:34.339Z,48.40
2018-06-22T10:21:03.186Z,47.70
2018-06-22T10:23:31.995Z,46.10
2018-06-22T10:26:00.856Z,45.60
2018-06-22T10:28:29.697Z,46.30
2018-06-22T10:30:58.567Z,47.10
2018-06-22T10:33:27.389Z,47.80
2018-06-22T10:35:56.351Z,47.10
2018-06-22T10:38:25.205Z,47.50
2018-06-22T10:40:54.093Z,47.80
2018-06-22T10:43:22.974Z,47.30
2018-06-22T10:45:51.837Z,47.20
2018-06-22T10:48:20.713Z,45.40
2018-06-22T10:50:50.727Z,45.40
2018-06-22T10:53:19.937Z,45.30
2018-06-22T10:55:51.186Z,44.70
2018-06-22T10:58:20.185Z,44.90
2018-06-22T11:00:49.028Z,44.50
2018-06-22T11:03:18.304Z,44.70
2018-06-22T11:05:47.226Z,45.00
2018-06-22T11:08:16.089Z,44.90
2018-06-22T11:10:44.999Z,45.50
2018-06-22T11:13:13.949Z,44.70
2018-06-22T11:15:42.852Z,44.60
2018-06-22T11:18:11.700Z,44.20
2018-06-22T11:20:41.204Z,44.80
2018-06-22T11:23:10.244Z,45.40
2018-06-22T11:25:39.140Z,44.70
2018-06-22T11:28:08.981Z,44.80
2018-06-22T11:30:37.961Z,44.50
2018-06-22T11:33:06.862Z,44.10
2018-06-22T11:35:35.742Z,43.60
2018-06-22T11:38:04.622Z,43.70
2018-06-22T11:40:33.639Z,43.60
2018-06-22T11:43:02.460Z,42.90
2018-06-22T11:45:31.338Z,43.20
2018-06-22T11:48:00.409Z,43.70
2018-06-22T11:50:29.328Z,43.50
2018-06-22T11:52:58.185Z,43.00
2018-06-22T11:55:27.104Z,43.00
2018-06-22T11:57:55.995Z,42.30
2018-06-22T12:00:24.884Z,42.00
2018-06-22T12:02:53.743Z,43.10
2018-06-22T12:05:22.641Z,41.80
2018-06-22T12:07:51.580Z,41.40
2018-06-22T12:10:20.408Z,41.80
2018-06-22T12:12:49.363Z,40.50
2018-06-22T12:15:18.285Z,40.60
2018-06-22T12:17:47.654Z,40.30
2018-06-22T12:20:16.547Z,42.00
2018-06-22T12:22:45.437Z,41.80
2018-06-22T12:25:14.426Z,41.70
2018-06-22T12:27:43.599Z,41.40
2018-06-22T12:32:40.825Z,40.40
2018-06-22T12:35:09.725Z,39.70
2018-06-22T12:37:38.557Z,40.20
2018-06-22T12:40:07.477Z,41.50
2018-06-22T12:42:36.316Z,40.20
2018-06-22T12:45:05.491Z,39.30
2018-06-22T12:47:34.468Z,40.40
2018-06-22T12:50:03.508Z,41.00
2018-06-22T12:52:32.707Z,40.80
2018-06-22T12:55:01.576Z,40.40
2018-06-22T12:57:30.509Z,39.60
2018-06-22T12:59:59.297Z,40.00
2018-06-22T13:02:28.089Z,39.50
2018-06-22T13:04:56.917Z,39.90
2018-06-22T13:07:25.869Z,39.00
2018-06-22T13:09:54.710Z,39.10
2018-06-22T13:12:23.501Z,39.80
2018-06-22T13:14:52.428Z,40.50
2018-06-22T13:17:21.348Z,39.40
2018-06-22T13:19:50.146Z,39.30
2018-06-22T13:22:18.980Z,39.70
2018-06-22T13:24:47.817Z,38.20
2018-06-22T13:27:16.670Z,38.10
2018-06-22T13:29:45.461Z,37.70
2018-06-22T13:32:14.336Z,37.60
2018-06-22T13:34:43.197Z,37.10
2018-06-22T13:37:12.071Z,36.40
2018-06-22T13:39:40.926Z,35.50
2018-06-22T13:42:09.833Z,32.60
2018-06-22T13:44:38.664Z,31.00
2018-06-22T13:47:08.512Z,30.00
2018-06-22T13:49:37.389Z,28.50
2018-06-22T13:52:06.236Z,27.70
2018-06-22T13:54:35.085Z,27.10
2018-06-22T13:57:04.053Z,28.20
2018-06-22T13:59:32.922Z,29.30
2018-06-22T14:02:01.762Z,27.80
2018-06-22T14:04:35.869Z,27.90
2018-06-22T14:07:06.501Z,27.10
2018-06-22T14:09:35.593Z,27.20
2018-06-22T14:12:04.477Z,27.30
2018-06-22T14:17:02.215Z,25.50
2018-06-22T14:19:32.221Z,26.60
2018-06-22T14:22:01.889Z,26.10
2018-06-22T14:24:30.745Z,25.30
2018-06-22T14:26:59.632Z,26.10
2018-06-22T14:29:29.788Z,26.70
2018-06-22T14:31:58.681Z,26.50
2018-06-22T14:34:27.850Z,27.60
2018-06-22T14:36:56.700Z,27.00
2018-06-22T14:39:25.635Z,26.60
2018-06-22T14:41:54.462Z,26.20
2018-06-22T14:44:23.295Z,24.80
2018-06-22T14:46:52.217Z,24.70
2018-06-22T14:49:21.053Z,23.60
2018-06-22T14:51:54.041Z,23.30
2018-06-22T14:54:28.073Z,22.80
2018-06-22T14:57:02.070Z,22.60
2018-06-22T14:59:36.074Z,22.70
2018-06-22T15:04:15.762Z,22.60
2018-06-22T15:06:49.664Z,22.60
2018-06-22T15:09:18.516Z,22.40
2018-06-22T15:11:47.355Z,22.20
2018-06-22T15:14:16.232Z,22.90
2018-06-22T15:16:45.112Z,23.80
2018-06-22T15:19:13.961Z,23.80
2018-06-22T15:21:42.754Z,23.60
2018-06-22T15:24:11.681Z,23.50
2018-06-22T15:26:40.481Z,23.60
2018-06-22T15:29:09.436Z,23.40
2018-06-22T15:31:38.270Z,22.50
2018-06-22T15:34:12.369Z,22.30
2018-06-22T15:36:46.481Z,22.10
2018-06-22T15:39:20.799Z,22.30
2018-06-22T15:41:54.880Z,22.00
2018-06-22T15:47:02.941Z,22.50
2018-06-22T15:49:36.869Z,23.00
2018-06-22T15:52:11.013Z,22.30
2018-06-22T15:54:44.961Z,21.90
2018-06-22T15:57:13.873Z,22.00
2018-06-22T15:59:42.786Z,21.20
2018-06-22T16:02:17.000Z,22.00
2018-06-22T16:04:45.846Z,22.30
2018-06-22T16:07:14.834Z,22.30
2018-06-22T16:09:49.307Z,22.60
2018-06-22T16:12:23.403Z,22.60
2018-06-22T16:14:57.261Z,21.80
2018-06-22T16:17:31.124Z,22.40
2018-06-22T16:20:05.046Z,22.90
2018-06-22T16:22:38.972Z,22.10
2018-06-22T16:25:13.108Z,22.40
2018-06-22T16:27:44.865Z,22.60
2018-06-22T16:30:14.621Z,22.90
2018-06-22T16:32:43.489Z,22.40
2018-06-22T16:35:12.316Z,22.30
2018-06-22T16:37:41.173Z,22.90
2018-06-22T16:40:10.055Z,23.10
2018-06-22T16:42:38.947Z,23.40
2018-06-22T16:45:08.087Z,23.80
2018-06-22T16:47:36.972Z,23.70
2018-06-22T16:50:07.211Z,23.10
2018-06-22T16:52:36.047Z,22.50
2018-06-22T16:55:05.021Z,22.20
2018-06-22T16:57:34.054Z,22.00
2018-06-22T17:00:03.056Z,22.10
2018-06-22T17:05:00.411Z,22.90
2018-06-22T17:07:34.601Z,22.50
2018-06-22T17:10:08.790Z,23.00
2018-06-22T17:12:42.894Z,23.60
2018-06-22T17:15:16.865Z,23.30
2018-06-22T17:18:00.641Z,24.00
2018-06-22T17:20:29.500Z,25.00
2018-06-22T17:22:58.317Z,24.90
2018-06-22T17:25:27.197Z,24.20
2018-06-22T17:27:56.073Z,23.60
2018-06-22T17:30:27.200Z,24.40
2018-06-22T17:32:57.199Z,24.70
2018-06-22T17:35:26.182Z,24.40
2018-06-22T17:37:55.096Z,24.10
2018-06-22T17:40:24.047Z,23.50
2018-06-22T17:42:53.017Z,23.70
2018-06-22T17:45:21.868Z,23.30
2018-06-22T17:47:50.696Z,23.20
2018-06-22T17:50:24.823Z,23.10
2018-06-22T17:52:53.678Z,22.80
2018-06-22T17:55:22.606Z,23.10
2018-06-22T17:57:51.445Z,22.90
2018-06-22T18:00:25.336Z,22.90
2018-06-22T18:02:59.422Z,23.10
2018-06-22T18:05:33.556Z,22.90
2018-06-22T18:08:02.395Z,23.90
2018-06-22T18:13:05.080Z,24.00
2018-06-22T18:15:33.972Z,24.70
2018-06-22T18:18:02.932Z,24.70
2018-06-22T18:20:32.057Z,24.50
2018-06-22T18:23:00.938Z,24.50
2018-06-22T18:25:29.791Z,25.40
2018-06-22T18:27:58.723Z,26.00
2018-06-22T18:30:27.597Z,26.00
2018-06-22T18:32:56.586Z,25.90
2018-06-22T18:35:25.469Z,25.90
2018-06-22T18:37:54.983Z,25.80
2018-06-22T18:40:23.901Z,26.10
2018-06-22T18:42:52.966Z,26.00
2018-06-22T18:45:21.814Z,25.70
2018-06-22T18:47:50.717Z,25.30
2018-06-22T18:50:20.078Z,25.70
2018-06-22T18:52:54.236Z,25.10
2018-06-22T18:55:28.297Z,25.80
2018-06-22T18:58:02.287Z,26.10
2018-06-22T19:00:36.242Z,26.30
2018-06-22T19:03:10.297Z,26.30
2018-06-22T19:05:39.136Z,26.30
2018-06-22T19:08:08.235Z,26.40
2018-06-22T19:10:37.231Z,26.30
2018-06-22T19:13:07.160Z,26.70
2018-06-22T19:15:36.017Z,27.00
2018-06-22T19:18:04.987Z,27.30
2018-06-22T19:20:33.919Z,27.00
2018-06-22T19:23:02.875Z,27.00
2018-06-22T19:25:31.691Z,27.60
2018-06-22T19:28:00.573Z,27.40
2018-06-22T19:30:29.499Z,28.10
2018-06-22T19:32:58.464Z,28.00
2018-06-22T19:37:56.006Z,28.50
2018-06-22T19:40:25.123Z,29.10
2018-06-22T19:42:54.062Z,29.40
2018-06-22T19:45:28.153Z,29.50
2018-06-22T19:50:06.085Z,29.90
2018-06-22T19:52:40.089Z,29.60
2018-06-22T19:55:08.942Z,30.40
2018-06-22T19:57:37.830Z,30.80
2018-06-22T20:00:07.153Z,31.70
2018-06-22T20:02:37.544Z,33.20
2018-06-22T20:05:06.654Z,34.30
2018-06-22T20:07:35.848Z,35.60
2018-06-22T20:10:05.271Z,37.30
2018-06-22T20:12:36.916Z,38.00
2018-06-22T20:15:05.857Z,39.00
2018-06-22T20:17:34.722Z,39.20
2018-06-22T20:20:03.692Z,39.60
2018-06-22T20:22:33.017Z,40.20
2018-06-22T20:25:07.110Z,40.10
2018-06-22T20:27:36.002Z,40.40
2018-06-22T20:30:05.167Z,40.80
2018-06-22T20:32:34.005Z,41.10
2018-06-22T20:35:08.329Z,40.70
2018-06-22T20:37:42.480Z,41.20
2018-06-22T20:40:16.789Z,41.60
2018-06-22T20:42:53.629Z,41.60
2018-06-22T20:45:27.580Z,42.70
2018-06-22T20:48:01.704Z,43.10
2018-06-22T20:50:34.021Z,43.60
2018-06-22T20:53:03.429Z,43.90
2018-06-22T20:55:32.829Z,44.20
2018-06-22T20:58:03.261Z,44.50
2018-06-22T21:00:32.474Z,44.80
2018-06-22T21:03:03.482Z,45.10
2018-06-22T21:08:01.739Z,45.50
2018-06-22T21:10:30.639Z,45.70
2018-06-22T21:12:59.785Z,46.20
2018-06-22T21:15:28.504Z,46.40
2018-06-22T21:17:57.503Z,46.70
2018-06-22T21:20:26.448Z,47.30
2018-06-22T21:22:55.388Z,47.80
2018-06-22T21:25:24.251Z,48.50
2018-06-22T21:30:32.095Z,49.60
2018-06-22T21:33:06.287Z,49.80
2018-06-22T21:35:41.059Z,50.40
2018-06-22T21:39:16.602Z,51.20
2018-06-22T21:41:45.452Z,51.60
2018-06-22T21:44:14.531Z,52.90
2018-06-22T21:46:44.193Z,53.50
2018-06-22T21:49:13.055Z,55.20
2018-06-22T21:51:41.978Z,55.60
2018-06-22T21:54:10.965Z,56.40
2018-06-22T21:56:40.655Z,56.80
2018-06-22T21:59:09.566Z,57.40
2018-06-22T22:01:38.552Z,57.20
2018-06-22T22:04:07.469Z,57.40
2018-06-22T22:06:36.336Z,58.00
2018-06-22T22:09:08.165Z,58.80
2018-06-22T22:11:42.278Z,59.20
2018-06-22T22:14:11.521Z,59.60
2018-06-22T22:16:40.483Z,60.20
2018-06-22T22:19:09.459Z,61.20
2018-06-22T22:21:38.412Z,62.80
2018-06-22T22:24:07.855Z,64.20
2018-06-22T22:26:37.246Z,66.70
2018-06-22T22:29:06.221Z,70.00
2018-06-22T22:31:35.083Z,71.90
2018-06-22T22:34:07.097Z,74.20
2018-06-22T22:36:37.345Z,76.60
2018-06-22T22:39:08.165Z,78.10
2018-06-22T22:41:37.903Z,80.00
2018-06-22T22:44:07.738Z,81.60
2018-06-22T22:46:38.087Z,82.90
2018-06-22T22:49:06.967Z,84.30
2018-06-22T22:51:37.568Z,85.20
2018-06-22T22:54:07.772Z,85.50
2018-06-22T22:56:37.125Z,86.90
2018-06-22T22:59:08.648Z,88.30
2018-06-22T23:01:38.221Z,89.30
2018-06-22T23:04:11.817Z,90.00
2018-06-22T23:06:40.719Z,90.20
2018-06-22T23:09:09.984Z,90.40
2018-06-22T23:11:38.870Z,90.20
2018-06-22T23:14:07.809Z,90.30
2018-06-22T23:16:37.058Z,90.20
2018-06-22T23:19:06.013Z,90.50
2018-06-22T23:24:03.406Z,89.90
2018-06-22T23:26:32.318Z,88.20
2018-06-22T23:29:01.161Z,87.20
2018-06-22T23:31:30.030Z,85.90
2018-06-22T23:33:58.895Z,87.90
2018-06-22T23:36:27.744Z,90.00
2018-06-22T23:38:56.672Z,90.70
2018-06-22T23:41:25.593Z,90.90
2018-06-22T23:43:54.518Z,91.00
2018-06-22T23:46:23.496Z,90.80
2018-06-22T23:48:52.276Z,90.90
2018-06-22T23:51:21.156Z,90.70
2018-06-22T23:53:50.068Z,91.30
2018-06-22T23:56:18.965Z,91.50
2018-06-22T23:58:47.838Z,91.60
